Time;durP1;ratioP1;P1;durP2;ratioP2;P2;SDS_P1;SDS_P2;PMS_P1;PMS_P2;Temp;Humidity;BMP_temperature;BMP_pressure;BME280_temperature;BME280_humidity;BME280_pressure;Samples;Min_cycle;Max_cycle;Signal;HPM_P1;HPM_P2
2022/01/10 00:02:23;;;;;;;35.90;10.93;;;3.40;99.90;;;;;;5012888;28;20458;-85
2022/01/10 00:04:48;;;;;;;40.03;10.93;;;2.50;99.90;;;;;;5028464;28;20048;-85
2022/01/10 00:07:14;;;;;;;47.10;10.48;;;3.40;99.90;;;;;;5029224;28;20481;-85
2022/01/10 00:09:40;;;;;;;42.92;13.07;;;2.50;99.90;;;;;;5029827;28;20051;-85
2022/01/10 00:12:06;;;;;;;37.45;10.70;;;2.50;99.90;;;;;;5029006;28;20053;-85
2022/01/10 00:14:32;;;;;;;38.00;10.07;;;2.50;99.90;;;;;;5029131;28;20426;-84
2022/01/10 00:16:57;;;;;;;41.42;11.13;;;2.50;99.90;;;;;;5029719;28;20045;-85
2022/01/10 00:19:24;;;;;;;35.88;10.18;;;2.50;99.90;;;;;;5028985;28;20509;-84
2022/01/10 00:21:49;;;;;;;40.50;11.25;;;3.30;99.90;;;;;;5029722;28;20095;-84
2022/01/10 00:24:15;;;;;;;44.03;10.43;;;3.30;99.90;;;;;;5028993;28;20085;-84
2022/01/10 00:26:41;;;;;;;34.70;9.88;;;2.40;99.90;;;;;;5011928;28;20099;-83
2022/01/10 00:29:06;;;;;;;33.75;9.98;;;2.40;99.90;;;;;;5028904;28;20470;-84
2022/01/10 00:31:32;;;;;;;40.97;10.10;;;2.30;99.90;;;;;;5030107;28;20127;-84
2022/01/10 00:33:58;;;;;;;48.17;11.00;;;2.30;99.90;;;;;;5032271;28;20046;-84
2022/01/10 00:36:25;;;;;;;37.03;10.05;;;2.30;99.90;;;;;;5033675;28;20045;-84
2022/01/10 00:38:51;;;;;;;36.33;10.13;;;3.60;99.90;;;;;;5015768;28;20430;-84
2022/01/10 00:41:16;;;;;;;45.50;10.60;;;2.20;99.90;;;;;;4999688;28;20048;-84
2022/01/10 00:43:46;;;;;;;37.03;11.75;;;3.00;99.90;;;;;;5015644;28;20122;-84
2022/01/10 00:46:11;;;;;;;37.80;10.32;;;2.50;99.90;;;;;;5033545;28;20054;-84
2022/01/10 00:48:37;;;;;;;46.45;10.55;;;2.00;99.90;;;;;;5016110;28;20048;-84
2022/01/10 00:51:03;;;;;;;34.65;9.75;;;2.00;99.90;;;;;;5015524;28;20394;-84
2022/01/10 00:53:29;;;;;;;42.22;11.55;;;1.90;99.90;;;;;;5032261;28;20152;-84
2022/01/10 00:55:54;;;;;;;39.38;10.85;;;1.90;99.90;;;;;;5032788;28;20049;-85
2022/01/10 00:58:20;;;;;;;37.40;11.07;;;1.80;99.90;;;;;;5033141;28;20456;-84
2022/01/10 01:00:46;;;;;;;36.35;10.75;;;2.20;99.90;;;;;;5031603;28;20572;-84
2022/01/10 01:03:11;;;;;;;43.10;11.85;;;1.70;99.90;;;;;;5033376;28;20089;-85
2022/01/10 01:05:41;;;;;;;35.67;11.88;;;1.60;99.90;;;;;;5015403;28;20060;-85
2022/01/10 01:08:08;;;;;;;46.15;12.43;;;2.10;99.90;;;;;;5031659;28;20533;-84
2022/01/10 01:13:19;;;;;;;51.65;13.90;;;1.60;99.90;;;;;;5031477;28;20057;-84
2022/01/10 01:15:58;;;;;;;43.45;13.48;;;2.90;99.90;;;;;;5017274;28;20069;-84
2022/01/10 01:19:01;;;;;;;43.13;13.35;;;0.90;99.90;;;;;;5031901;28;20053;-84
2022/01/10 01:24:05;;;;;;;47.28;12.70;;;1.60;99.90;;;;;;5017353;28;20509;-84
2022/01/10 01:26:44;;;;;;;49.28;13.00;;;2.40;99.90;;;;;;5031353;28;20058;-84
2022/01/10 01:29:10;;;;;;;45.00;14.23;;;1.50;99.90;;;;;;5014850;28;20045;-83
2022/01/10 01:31:37;;;;;;;49.67;13.02;;;2.00;99.90;;;;;;5014617;28;20115;-83
2022/01/10 01:34:05;;;;;;;49.17;13.95;;;1.60;99.90;;;;;;4998483;28;20122;-84
2022/01/10 01:36:32;;;;;;;45.92;14.15;;;1.50;99.90;;;;;;4999124;28;20053;-84
2022/01/10 01:38:58;;;;;;;45.13;14.45;;;1.50;99.90;;;;;;4998455;28;20061;-84
2022/01/10 01:43:50;;;;;;;51.78;15.02;;;1.60;99.90;;;;;;5030494;28;20559;-87
2022/01/10 01:46:16;;;;;;;55.70;14.70;;;1.90;99.90;;;;;;5014641;28;20128;-84
2022/01/10 01:48:42;;;;;;;44.38;13.43;;;1.60;99.90;;;;;;5031425;28;20128;-84
2022/01/10 01:51:07;;;;;;;55.00;14.55;;;1.50;99.90;;;;;;5030684;28;20398;-84
2022/01/10 01:53:33;;;;;;;53.70;14.05;;;1.50;99.90;;;;;;5030916;28;20076;-84
2022/01/10 01:55:59;;;;;;;50.97;14.23;;;1.50;99.90;;;;;;5030419;28;20096;-84
2022/01/10 01:58:25;;;;;;;48.25;14.38;;;1.40;99.90;;;;;;5014620;28;20056;-84
2022/01/10 02:00:51;;;;;;;45.88;13.35;;;1.40;99.90;;;;;;4998101;28;20063;-84
2022/01/10 02:03:16;;;;;;;60.03;13.82;;;1.30;99.90;;;;;;5031665;28;20049;-84
2022/01/10 02:05:42;;;;;;;47.67;14.13;;;1.30;99.90;;;;;;5030806;28;20041;-84
2022/01/10 02:08:09;;;;;;;60.20;14.45;;;1.30;99.90;;;;;;5030295;28;20456;-84
2022/01/10 02:10:35;;;;;;;51.25;13.50;;;1.40;99.90;;;;;;5014239;28;20052;-84
2022/01/10 02:13:00;;;;;;;54.65;13.57;;;1.20;99.90;;;;;;5030266;28;20128;-84
2022/01/10 02:15:33;;;;;;;50.97;13.95;;;1.70;99.90;;;;;;5014161;28;20049;-84
2022/01/10 02:17:59;;;;;;;49.33;13.98;;;1.90;99.90;;;;;;5031294;28;20115;-84
2022/01/10 02:20:27;;;;;;;50.95;15.07;;;1.70;99.90;;;;;;5030432;28;20082;-84
2022/01/10 02:22:52;;;;;;;49.85;13.85;;;1.10;99.90;;;;;;5030392;28;20049;-84
2022/01/10 02:25:18;;;;;;;51.83;13.73;;;2.30;99.90;;;;;;5030942;28;20185;-84
2022/01/10 02:27:45;;;;;;;55.97;13.80;;;1.00;99.90;;;;;;5031479;28;20478;-84
2022/01/10 02:30:11;;;;;;;53.53;14.50;;;2.40;99.90;;;;;;4997319;28;20416;-83
2022/01/10 02:32:37;;;;;;;55.10;14.45;;;0.90;99.90;;;;;;5031398;28;20045;-84
2022/01/10 02:35:03;;;;;;;47.17;14.10;;;0.90;99.90;;;;;;5029980;28;20060;-84
2022/01/10 02:37:32;;;;;;;58.88;14.32;;;0.90;99.90;;;;;;5031160;28;20044;-84
2022/01/10 02:39:59;;;;;;;59.13;15.20;;;2.30;99.90;;;;;;5013683;28;20545;-86
2022/01/10 02:42:24;;;;;;;56.28;15.15;;;1.10;99.90;;;;;;5030073;28;20045;-84
2022/01/10 02:44:50;;;;;;;52.30;14.57;;;2.00;99.90;;;;;;5031153;28;20049;-84
2022/01/10 02:47:16;;;;;;;60.28;15.25;;;0.80;99.90;;;;;;5013379;28;20049;-83
2022/01/10 02:49:41;;;;;;;57.03;16.95;;;0.90;99.90;;;;;;5013694;28;20053;-83
2022/01/10 02:52:07;;;;;;;69.15;18.05;;;0.90;99.90;;;;;;5029571;28;20398;-83
2022/01/10 02:54:33;;;;;;;67.65;19.42;;;1.00;99.90;;;;;;5013652;28;20453;-83
2022/01/10 02:56:58;;;;;;;61.75;18.25;;;1.10;99.90;;;;;;5029229;28;20401;-83
2022/01/10 02:59:24;;;;;;;58.97;18.65;;;1.20;99.90;;;;;;5030526;28;20049;-83
2022/01/10 03:01:50;;;;;;;64.95;19.65;;;1.70;99.90;;;;;;5031058;28;20049;-83
2022/01/10 03:04:16;;;;;;;67.03;20.45;;;1.60;99.90;;;;;;5012843;28;20100;-83
2022/01/10 03:06:43;;;;;;;74.10;20.73;;;1.90;99.90;;;;;;5031087;28;20084;-83
2022/01/10 03:09:11;;;;;;;66.35;19.40;;;1.20;99.90;;;;;;5013028;28;20061;-83
2022/01/10 03:11:39;;;;;;;73.38;20.90;;;1.10;99.90;;;;;;5030723;28;20108;-84
2022/01/10 03:14:04;;;;;;;74.45;20.90;;;1.10;99.90;;;;;;5028995;28;20080;-85
2022/01/10 03:16:30;;;;;;;74.85;21.08;;;1.10;99.90;;;;;;4997064;28;20057;-84
2022/01/10 03:18:56;;;;;;;65.75;20.33;;;1.90;99.90;;;;;;5013363;28;20054;-83
2022/01/10 03:21:21;;;;;;;65.85;21.52;;;1.50;99.90;;;;;;5029070;28;20100;-83
2022/01/10 03:23:48;;;;;;;71.82;20.98;;;1.00;99.90;;;;;;5029077;28;20103;-84
2022/01/10 03:26:14;;;;;;;81.70;22.10;;;1.00;99.90;;;;;;4996204;28;20049;-84
2022/01/10 03:28:40;;;;;;;87.40;22.58;;;1.10;99.90;;;;;;5030701;28;20049;-84
2022/01/10 03:31:06;;;;;;;80.13;22.45;;;2.30;99.90;;;;;;5030136;28;20084;-86
2022/01/10 03:33:31;;;;;;;82.50;23.17;;;1.00;99.90;;;;;;5030588;28;20091;-83
2022/01/10 03:35:57;;;;;;;89.22;23.35;;;1.00;99.90;;;;;;5029673;28;20056;-83
2022/01/10 03:38:22;;;;;;;90.53;22.63;;;1.10;99.90;;;;;;5030069;28;20048;-83
2022/01/10 03:40:48;;;;;;;95.15;24.08;;;1.00;99.90;;;;;;5029566;28;20049;-84
2022/01/10 03:43:14;;;;;;;93.93;23.70;;;0.90;99.90;;;;;;5012545;28;20053;-83
2022/01/10 03:45:39;;;;;;;84.45;24.90;;;2.40;99.90;;;;;;5029194;28;20099;-83
2022/01/10 03:48:05;;;;;;;84.53;24.52;;;1.70;99.90;;;;;;5028921;28;20493;-83
2022/01/10 03:50:31;;;;;;;77.97;24.60;;;1.60;99.90;;;;;;5028677;28;20049;-83
2022/01/10 03:52:56;;;;;;;92.75;24.80;;;0.90;99.90;;;;;;5030614;28;20056;-84
2022/01/10 03:55:22;;;;;;;91.32;25.55;;;1.70;99.90;;;;;;5012356;28;20049;-83
2022/01/10 03:57:48;;;;;;;90.55;24.85;;;0.80;99.90;;;;;;5030382;28;20049;-83
2022/01/10 04:00:14;;;;;;;105.07;26.05;;;0.80;99.90;;;;;;5029843;28;20804;-83
2022/01/10 04:02:42;;;;;;;107.68;26.00;;;0.80;99.90;;;;;;5029002;28;20046;-84
2022/01/10 04:05:08;;;;;;;99.75;25.23;;;1.00;99.90;;;;;;5013220;28;20056;-84
2022/01/10 04:07:35;;;;;;;91.05;25.50;;;0.80;99.90;;;;;;5031074;28;20046;-83
2022/01/10 04:10:02;;;;;;;86.50;24.80;;;2.10;99.90;;;;;;5032892;28;20054;-82
2022/01/10 04:12:28;;;;;;;112.88;26.92;;;1.70;99.90;;;;;;5032566;28;20057;-83
2022/01/10 04:14:53;;;;;;;88.32;26.83;;;1.50;99.90;;;;;;5034324;28;20375;-83
2022/01/10 04:17:19;;;;;;;102.88;26.92;;;0.90;99.90;;;;;;5016135;28;20470;-82
2022/01/10 04:19:45;;;;;;;95.40;27.63;;;0.80;99.90;;;;;;5033889;28;20053;-83
2022/01/10 04:22:11;;;;;;;105.03;27.63;;;2.00;99.90;;;;;;5032824;28;20045;-83
2022/01/10 04:24:37;;;;;;;97.53;28.63;;;1.50;99.90;;;;;;5032354;28;20113;-83
2022/01/10 04:27:03;;;;;;;96.10;30.23;;;0.50;99.90;;;;;;5033800;28;20112;-84
2022/01/10 04:29:29;;;;;;;106.53;30.10;;;0.50;99.90;;;;;;5031719;28;20052;-84
2022/01/10 04:31:55;;;;;;;93.72;30.05;;;0.50;99.90;;;;;;5033978;28;20108;-83
2022/01/10 04:34:20;;;;;;;118.80;31.13;;;0.80;99.90;;;;;;5033282;28;20140;-84
2022/01/10 04:36:46;;;;;;;103.72;30.52;;;0.60;99.90;;;;;;5032357;28;20081;-84
2022/01/10 04:39:11;;;;;;;116.47;33.53;;;0.50;99.90;;;;;;5032379;28;20050;-83
2022/01/10 04:41:39;;;;;;;99.07;32.65;;;0.60;99.90;;;;;;5032867;28;20045;-84
2022/01/10 04:44:06;;;;;;;111.13;33.53;;;0.60;99.90;;;;;;5016243;28;20379;-84
2022/01/10 04:46:31;;;;;;;110.78;33.03;;;0.60;99.90;;;;;;5032654;28;20482;-84
2022/01/10 04:48:57;;;;;;;121.05;34.35;;;0.50;99.90;;;;;;5033703;28;20051;-84
2022/01/10 04:51:24;;;;;;;109.65;33.80;;;1.70;99.90;;;;;;5031516;28;20615;-84
2022/01/10 04:53:53;;;;;;;120.07;34.50;;;0.50;99.90;;;;;;5033283;28;20053;-84
2022/01/10 04:56:19;;;;;;;112.82;35.78;;;0.50;99.90;;;;;;5032765;28;20048;-86
2022/01/10 04:58:45;;;;;;;135.77;37.45;;;0.40;99.90;;;;;;5015637;28;20056;-82
2022/01/10 05:01:11;;;;;;;110.88;34.50;;;0.40;99.90;;;;;;5031930;28;20080;-83
2022/01/10 05:03:37;;;;;;;124.10;36.75;;;1.60;99.90;;;;;;5032760;28;20187;-83
2022/01/10 05:06:04;;;;;;;125.10;36.28;;;0.30;99.90;;;;;;5032032;28;20496;-83
2022/01/10 05:08:30;;;;;;;108.68;35.97;;;0.30;99.90;;;;;;5031177;28;20102;-83
2022/01/10 05:10:56;;;;;;;127.25;37.00;;;0.30;99.90;;;;;;5031715;28;20049;-83
2022/01/10 05:13:22;;;;;;;108.32;36.53;;;0.30;99.90;;;;;;4982611;28;20343;-84
2022/01/10 05:15:49;;;;;;;119.10;36.85;;;1.10;99.90;;;;;;5015362;28;20072;-84
2022/01/10 05:18:16;;;;;;;130.00;38.53;;;0.20;99.90;;;;;;5032166;28;20046;-84
2022/01/10 05:20:42;;;;;;;124.88;39.47;;;0.20;99.90;;;;;;5031105;28;20128;-84
2022/01/10 05:23:07;;;;;;;139.27;38.53;;;0.20;99.90;;;;;;5032806;28;20244;-83
2022/01/10 05:25:36;;;;;;;136.38;38.85;;;0.20;99.90;;;;;;5014700;28;20131;-84
2022/01/10 05:28:04;;;;;;;147.43;39.88;;;0.20;99.90;;;;;;5015113;28;20409;-84
2022/01/10 05:30:30;;;;;;;124.22;38.15;;;0.10;99.90;;;;;;5030586;28;20065;-84
2022/01/10 05:32:56;;;;;;;136.27;40.28;;;0.10;99.90;;;;;;5031402;28;20053;-83
2022/01/10 05:35:21;;;;;;;121.70;40.42;;;0.20;99.90;;;;;;4998919;28;20064;-84
2022/01/10 05:37:47;;;;;;;129.57;41.53;;;0.10;99.90;;;;;;5014675;28;20111;-83
2022/01/10 05:40:13;;;;;;;149.38;44.08;;;0.10;99.90;;;;;;5032832;28;20493;-84
2022/01/10 05:42:38;;;;;;;159.15;48.38;;;0.10;99.90;;;;;;5032480;28;20637;-84
2022/01/10 05:45:04;;;;;;;165.63;49.22;;;0.10;99.90;;;;;;5031466;28;20486;-83
2022/01/10 05:47:32;;;;;;;152.50;45.58;;;0.00;99.90;;;;;;5032008;28;20045;-84
2022/01/10 05:50:02;;;;;;;161.20;49.03;;;0.00;99.90;;;;;;4998578;28;20077;-84
2022/01/10 05:52:28;;;;;;;144.65;46.08;;;0.10;99.90;;;;;;5015137;28;20092;-84
2022/01/10 05:54:53;;;;;;;159.52;46.53;;;0.10;99.90;;;;;;5014598;28;20065;-84
2022/01/10 05:57:19;;;;;;;159.32;48.13;;;1.00;99.90;;;;;;5032698;28;20461;-84
2022/01/10 05:59:45;;;;;;;170.18;49.17;;;0.00;99.90;;;;;;5030746;28;20111;-84
2022/01/10 06:02:10;;;;;;;154.82;47.22;;;0.00;99.90;;;;;;5031050;28;20386;-83
2022/01/10 06:04:36;;;;;;;144.88;47.85;;;0.00;99.90;;;;;;5030742;28;20053;-84
2022/01/10 06:07:02;;;;;;;138.93;46.53;;;0.90;99.90;;;;;;5014280;28;20045;-83
2022/01/10 06:09:27;;;;;;;183.02;51.03;;;0.00;99.90;;;;;;5031787;28;20048;-83
2022/01/10 06:11:53;;;;;;;169.00;49.88;;;1.10;99.90;;;;;;5031147;28;20088;-83
2022/01/10 06:14:19;;;;;;;158.13;51.22;;;0.00;99.90;;;;;;5031340;28;20118;-82
2022/01/10 06:16:44;;;;;;;191.05;54.65;;;0.80;99.90;;;;;;5029702;28;20680;-83
2022/01/10 06:19:10;;;;;;;172.15;57.00;;;0.00;99.90;;;;;;5030199;28;20539;-84
2022/01/10 06:21:35;;;;;;;190.02;53.72;;;1.20;99.90;;;;;;5029478;28;20056;-84
2022/01/10 06:24:01;;;;;;;187.27;52.45;;;0.00;99.90;;;;;;5031579;28;20046;-83
2022/01/10 06:26:27;;;;;;;154.82;47.85;;;-0.10;99.90;;;;;;5030055;28;20084;-84
2022/01/10 06:28:52;;;;;;;169.30;50.20;;;-0.10;99.90;;;;;;5030831;28;20124;-84
2022/01/10 06:31:18;;;;;;;147.70;48.22;;;-0.10;99.90;;;;;;5029865;28;20136;-84
2022/01/10 06:33:44;;;;;;;163.15;49.33;;;-0.10;99.90;;;;;;5029434;28;20049;-83
2022/01/10 06:36:09;;;;;;;159.75;50.92;;;1.10;99.90;;;;;;5029886;28;20156;-83
2022/01/10 06:38:35;;;;;;;168.55;51.47;;;0.10;99.90;;;;;;5030691;28;20106;-85
2022/01/10 06:41:01;;;;;;;150.90;52.17;;;0.80;99.90;;;;;;5013660;28;20103;-84
2022/01/10 06:43:27;;;;;;;163.68;55.10;;;0.10;99.90;;;;;;5030057;28;20057;-82
2022/01/10 06:45:52;;;;;;;178.10;55.83;;;0.10;99.90;;;;;;5029504;28;20050;-83
2022/01/10 06:48:18;;;;;;;182.82;56.00;;;0.10;99.90;;;;;;5029895;28;20041;-84
2022/01/10 06:50:47;;;;;;;174.93;55.42;;;0.60;99.90;;;;;;5029407;28;20501;-83
2022/01/10 06:53:16;;;;;;;184.68;57.63;;;0.10;99.90;;;;;;5013812;28;20072;-85
2022/01/10 06:55:42;;;;;;;198.02;59.10;;;0.10;99.90;;;;;;5012769;28;20048;-84
2022/01/10 06:58:07;;;;;;;180.30;58.75;;;0.10;99.90;;;;;;5029601;28;20489;-85
2022/01/10 07:00:33;;;;;;;177.45;56.85;;;0.90;99.90;;;;;;5029748;28;20096;-84
2022/01/10 07:02:59;;;;;;;163.15;56.35;;;0.10;99.90;;;;;;5030294;28;20059;-83
2022/01/10 07:05:25;;;;;;;166.73;55.80;;;0.20;99.90;;;;;;5030706;28;20052;-84
2022/01/10 07:07:50;;;;;;;180.80;60.50;;;0.20;99.90;;;;;;5029015;28;20045;-84
2022/01/10 07:10:16;;;;;;;195.95;62.53;;;1.40;99.90;;;;;;5029764;28;20460;-84
2022/01/10 07:12:42;;;;;;;191.07;62.15;;;0.20;99.90;;;;;;5029213;28;20464;-84
2022/01/10 07:15:08;;;;;;;208.27;63.45;;;-0.10;99.90;;;;;;5029615;28;20401;-83
2022/01/10 07:17:34;;;;;;;220.45;63.88;;;0.20;99.90;;;;;;5029646;28;20053;-83
2022/01/10 07:20:00;;;;;;;186.13;60.33;;;0.30;99.90;;;;;;5012569;28;20562;-83
2022/01/10 07:22:25;;;;;;;202.45;60.47;;;0.20;99.90;;;;;;5012741;28;20084;-84
2022/01/10 07:24:51;;;;;;;210.98;62.70;;;0.20;99.90;;;;;;5028539;28;20100;-84
2022/01/10 07:27:17;;;;;;;205.57;62.25;;;0.20;99.90;;;;;;5029332;28;20057;-84
2022/01/10 07:29:42;;;;;;;192.73;62.13;;;0.10;99.90;;;;;;5029504;28;20572;-86
2022/01/10 07:32:08;;;;;;;189.32;61.53;;;0.70;99.90;;;;;;5030231;28;20084;-84
2022/01/10 07:34:34;;;;;;;194.75;59.05;;;0.10;99.90;;;;;;5029251;28;20046;-83
2022/01/10 07:37:00;;;;;;;209.80;62.67;;;1.40;99.90;;;;;;5028904;28;20402;-83
2022/01/10 07:39:25;;;;;;;205.00;61.50;;;0.80;99.90;;;;;;5029343;28;20127;-84
2022/01/10 07:41:51;;;;;;;192.52;59.17;;;0.00;99.90;;;;;;5031029;28;20049;-83
2022/01/10 07:44:17;;;;;;;190.07;58.50;;;0.70;99.90;;;;;;5033219;28;20045;-83
2022/01/10 07:46:42;;;;;;;187.25;57.58;;;1.40;99.90;;;;;;5034121;28;20049;-86
2022/01/10 07:49:08;;;;;;;177.75;58.80;;;0.00;99.90;;;;;;5032961;28;20128;-85
2022/01/10 07:51:33;;;;;;;224.35;63.15;;;0.10;99.90;;;;;;5033122;28;20478;-84
2022/01/10 07:53:59;;;;;;;193.05;58.50;;;0.20;99.90;;;;;;4999685;28;20497;-84
2022/01/10 07:56:26;;;;;;;199.07;59.28;;;0.10;99.90;;;;;;5032844;28;20142;-84
2022/01/10 07:58:52;;;;;;;195.50;61.40;;;0.10;99.90;;;;;;5015411;28;20050;-83
2022/01/10 08:01:19;;;;;;;171.23;59.25;;;0.10;99.90;;;;;;5034041;28;20115;-84
2022/01/10 08:03:46;;;;;;;218.25;65.13;;;0.60;99.90;;;;;;5016515;28;20053;-86
2022/01/10 08:06:12;;;;;;;226.30;65.22;;;0.20;99.90;;;;;;5016194;28;20045;-83
2022/01/10 08:08:38;;;;;;;194.32;62.38;;;1.60;99.90;;;;;;5032598;28;20763;-83
2022/01/10 08:11:03;;;;;;;188.27;62.65;;;0.30;99.90;;;;;;5015893;28;20057;-84
2022/01/10 08:13:29;;;;;;;196.32;60.67;;;0.20;99.90;;;;;;5032580;28;20478;-84
2022/01/10 08:15:55;;;;;;;184.77;61.28;;;0.30;99.90;;;;;;5032167;28;20140;-84
2022/01/10 08:18:22;;;;;;;197.68;62.03;;;0.90;99.90;;;;;;5033402;28;20045;-83
2022/01/10 08:20:47;;;;;;;168.30;59.15;;;0.20;99.90;;;;;;5032425;28;20042;-87
2022/01/10 08:23:13;;;;;;;187.63;59.95;;;0.80;99.90;;;;;;5032995;28;20053;-84
2022/01/10 08:25:39;;;;;;;180.55;60.72;;;0.20;99.90;;;;;;5032332;28;20085;-84
2022/01/10 08:28:05;;;;;;;179.07;61.85;;;0.30;99.90;;;;;;5031677;28;20053;-84
2022/01/10 08:30:31;;;;;;;202.50;63.03;;;0.40;99.90;;;;;;5031989;28;20061;-84
2022/01/10 08:32:56;;;;;;;191.00;60.47;;;0.40;99.90;;;;;;5031484;28;20049;-84
2022/01/10 08:35:22;;;;;;;160.15;58.72;;;0.40;99.90;;;;;;5032415;28;20059;-84
2022/01/10 08:37:48;;;;;;;171.73;59.03;;;0.40;99.90;;;;;;5015953;28;20447;-83
2022/01/10 08:40:14;;;;;;;214.93;65.03;;;1.30;99.90;;;;;;5015093;28;20118;-84
2022/01/10 08:42:40;;;;;;;213.02;64.07;;;0.60;99.90;;;;;;5033482;28;20041;-84
2022/01/10 08:45:08;;;;;;;208.20;62.80;;;1.60;99.90;;;;;;5032423;28;20040;-84
2022/01/10 08:47:34;;;;;;;196.13;61.35;;;0.70;99.90;;;;;;5015808;28;20049;-83
2022/01/10 08:49:59;;;;;;;182.23;60.03;;;0.80;99.90;;;;;;5032602;28;20128;-83
2022/01/10 08:52:25;;;;;;;212.95;66.20;;;1.60;99.90;;;;;;5033094;28;20184;-85
2022/01/10 08:54:51;;;;;;;170.18;61.83;;;0.90;99.90;;;;;;5030518;28;20045;-83
2022/01/10 08:57:17;;;;;;;196.43;65.97;;;1.10;99.90;;;;;;5031151;28;20053;-83
2022/01/10 08:59:43;;;;;;;184.20;69.28;;;1.30;99.90;;;;;;5031804;28;20470;-83
2022/01/10 09:02:12;;;;;;;212.02;72.75;;;2.40;99.90;;;;;;5030653;28;20052;-83
2022/01/10 09:04:39;;;;;;;196.75;69.65;;;1.80;99.90;;;;;;5031536;28;20128;-85
2022/01/10 09:07:05;;;;;;;156.57;60.83;;;2.30;99.90;;;;;;5030775;28;20053;-84
2022/01/10 09:09:31;;;;;;;150.30;58.72;;;3.00;99.90;;;;;;5031465;28;20053;-84
2022/01/10 09:11:57;;;;;;;120.78;54.15;;;2.60;99.90;;;;;;5030816;28;20063;-86
2022/01/10 09:14:23;;;;;;;126.32;51.45;;;3.70;99.90;;;;;;5032165;28;20064;-84
2022/01/10 09:16:48;;;;;;;101.85;46.53;;;3.40;99.90;;;;;;5015121;28;20490;-83
2022/01/10 09:19:14;;;;;;;98.85;43.67;;;3.90;99.90;;;;;;5031803;28;20401;-82
2022/01/10 09:21:41;;;;;;;96.82;41.22;;;4.00;99.90;;;;;;5031291;28;20139;-82
2022/01/10 09:24:07;;;;;;;75.40;37.00;;;4.80;99.90;;;;;;5014200;28;20051;-82
2022/01/10 09:26:33;;;;;;;74.05;37.25;;;4.40;99.90;;;;;;4998486;28;20049;-81
2022/01/10 09:28:59;;;;;;;68.20;34.00;;;4.60;99.90;;;;;;5030890;28;20124;-86
2022/01/10 09:31:25;;;;;;;87.05;36.17;;;5.00;99.90;;;;;;5030742;28;20089;-83
2022/01/10 09:33:55;;;;;;;67.13;32.70;;;5.10;99.90;;;;;;5014532;28;20096;-83
2022/01/10 09:36:27;;;;;;;72.28;32.75;;;4.80;99.90;;;;;;5030368;28;20084;-82
2022/01/10 09:38:53;;;;;;;61.42;30.13;;;4.70;99.90;;;;;;5030899;28;20053;-82
2022/01/10 09:41:19;;;;;;;71.30;31.50;;;4.40;99.90;;;;;;5031582;28;20388;-83
2022/01/10 09:43:52;;;;;;;68.88;32.45;;;4.10;99.90;;;;;;5032068;28;20084;-82
2022/01/10 09:46:18;;;;;;;68.53;33.40;;;4.00;99.90;;;;;;5014224;28;20125;-83
2022/01/10 09:48:44;;;;;;;87.75;34.38;;;3.80;99.90;;;;;;5030359;28;20145;-83
2022/01/10 09:51:10;;;;;;;74.90;35.50;;;3.70;99.90;;;;;;5031557;28;20048;-83
2022/01/10 09:53:36;;;;;;;77.63;34.83;;;3.80;99.90;;;;;;5031770;28;20042;-82
2022/01/10 09:56:02;;;;;;;72.10;35.83;;;3.70;99.90;;;;;;5030274;28;20074;-85
2022/01/10 09:58:28;;;;;;;71.57;36.67;;;3.60;99.90;;;;;;5031313;28;20456;-82
2022/01/10 10:00:55;;;;;;;75.75;36.28;;;3.70;99.90;;;;;;5031785;28;20049;-83
2022/01/10 10:03:22;;;;;;;70.25;38.33;;;3.60;99.90;;;;;;5013422;28;20045;-84
2022/01/10 10:05:54;;;;;;;93.63;39.33;;;3.60;99.90;;;;;;5030196;28;20046;-82
2022/01/10 10:08:21;;;;;;;84.43;39.38;;;3.60;99.90;;;;;;5013309;28;20068;-83
2022/01/10 10:10:46;;;;;;;81.68;38.78;;;3.50;99.90;;;;;;5013823;28;20045;-83
2022/01/10 10:13:14;;;;;;;85.68;39.80;;;3.40;99.90;;;;;;5029471;28;20059;-82
2022/01/10 10:15:40;;;;;;;78.82;39.97;;;4.00;99.90;;;;;;5029909;28;20375;-83
2022/01/10 10:18:08;;;;;;;78.68;40.78;;;3.60;99.90;;;;;;4996767;28;20051;-85
2022/01/10 10:20:34;;;;;;;78.55;40.45;;;3.70;99.90;;;;;;5030116;28;20090;-83
2022/01/10 10:22:59;;;;;;;90.20;42.05;;;3.70;99.90;;;;;;5030014;28;20503;-83
2022/01/10 10:25:25;;;;;;;77.18;41.47;;;4.00;99.90;;;;;;4996399;28;20279;-83
2022/01/10 10:27:51;;;;;;;83.80;39.95;;;5.00;99.90;;;;;;5029747;28;20120;-83
2022/01/10 10:30:22;;;;;;;89.82;44.13;;;4.30;99.90;;;;;;5028946;28;20053;-83
2022/01/10 10:32:50;;;;;;;80.13;40.35;;;4.30;99.90;;;;;;5029935;28;20053;-84
2022/01/10 10:35:16;;;;;;;73.45;39.22;;;4.20;99.90;;;;;;5029133;28;20067;-83
2022/01/10 10:37:43;;;;;;;79.65;41.25;;;4.40;99.90;;;;;;5031067;28;20043;-83
2022/01/10 10:40:11;;;;;;;70.32;35.33;;;4.70;99.90;;;;;;5030675;28;20042;-86
2022/01/10 10:42:41;;;;;;;69.07;35.70;;;4.60;99.90;;;;;;5029621;28;20045;-84
2022/01/10 10:45:09;;;;;;;76.38;38.45;;;4.70;99.90;;;;;;5030887;28;20130;-83
2022/01/10 10:47:36;;;;;;;72.60;37.60;;;4.70;99.90;;;;;;5031046;28;20102;-84
2022/01/10 10:50:05;;;;;;;65.05;36.47;;;4.60;99.90;;;;;;5029653;28;20056;-83
2022/01/10 10:52:32;;;;;;;65.07;35.63;;;4.50;99.90;;;;;;5013436;28;20052;-82
2022/01/10 10:55:08;;;;;;;65.68;35.63;;;4.50;99.90;;;;;;5029617;28;20053;-83
2022/01/10 10:57:34;;;;;;;72.57;37.45;;;4.50;99.90;;;;;;5028961;28;20132;-84
2022/01/10 11:00:01;;;;;;;66.93;34.47;;;4.80;99.90;;;;;;5029426;28;20049;-83
2022/01/10 11:02:27;;;;;;;61.78;34.55;;;5.90;99.90;;;;;;4996110;28;20056;-84
2022/01/10 11:04:53;;;;;;;62.08;32.85;;;5.40;99.90;;;;;;5012835;28;20444;-84
2022/01/10 11:07:22;;;;;;;75.38;34.80;;;5.20;99.90;;;;;;5028639;28;20049;-85
2022/01/10 11:09:48;;;;;;;64.05;32.42;;;4.90;99.90;;;;;;4997132;28;20049;-83
2022/01/10 11:12:16;;;;;;;60.45;32.90;;;4.70;99.90;;;;;;5012684;28;20053;-86
2022/01/10 11:14:42;;;;;;;66.65;34.30;;;4.60;99.90;;;;;;5029098;28;20461;-82
2022/01/10 11:17:11;;;;;;;59.92;33.58;;;4.50;99.90;;;;;;5011916;28;20041;-82
2022/01/10 11:19:36;;;;;;;62.85;33.47;;;4.40;99.90;;;;;;5012096;28;20851;-82
2022/01/10 11:22:04;;;;;;;63.40;34.05;;;4.40;99.90;;;;;;5028974;28;20053;-83
2022/01/10 11:24:43;;;;;;;63.63;34.08;;;3.90;99.90;;;;;;5029320;28;20045;-83
2022/01/10 11:27:28;;;;;;;65.70;33.65;;;4.80;99.90;;;;;;4995934;28;20111;-83
2022/01/10 11:29:56;;;;;;;56.95;31.63;;;4.40;99.90;;;;;;5028450;28;20557;-82
2022/01/10 11:32:48;;;;;;;66.40;34.92;;;4.40;99.90;;;;;;5028344;28;20049;-83
2022/01/10 11:35:14;;;;;;;70.35;34.33;;;4.40;99.90;;;;;;5029117;28;20088;-82
2022/01/10 11:37:39;;;;;;;64.30;32.75;;;4.40;99.90;;;;;;5012143;28;20518;-82
2022/01/10 11:40:07;;;;;;;61.85;34.97;;;4.50;99.90;;;;;;5028820;28;20068;-82
2022/01/10 11:42:37;;;;;;;60.97;34.00;;;4.50;99.90;;;;;;5029485;28;20472;-83
2022/01/10 11:45:10;;;;;;;60.38;33.22;;;4.60;99.90;;;;;;5012759;28;20057;-82
2022/01/10 11:48:01;;;;;;;64.05;33.55;;;4.70;99.90;;;;;;5012057;28;20056;-83
2022/01/10 11:50:29;;;;;;;62.40;34.85;;;4.80;99.90;;;;;;5023500;28;20083;-83
2022/01/10 11:53:01;;;;;;;56.47;32.92;;;4.80;99.90;;;;;;5012284;28;20057;-83
2022/01/10 11:56:03;;;;;;;62.45;35.03;;;4.80;99.90;;;;;;5028210;28;20509;-83
2022/01/10 11:58:28;;;;;;;58.17;31.95;;;4.90;99.90;;;;;;4990483;28;20061;-83
2022/01/10 12:01:04;;;;;;;62.97;32.58;;;4.90;99.90;;;;;;5012199;28;20132;-83
2022/01/10 12:03:31;;;;;;;62.38;32.95;;;5.00;99.90;;;;;;5028162;28;20045;-83
2022/01/10 12:05:57;;;;;;;63.92;33.63;;;5.00;99.90;;;;;;4995982;28;20084;-83
2022/01/10 12:08:22;;;;;;;60.65;35.13;;;5.20;99.90;;;;;;5011977;28;20053;-86
2022/01/10 12:10:48;;;;;;;60.85;31.92;;;5.20;99.90;;;;;;5029891;28;20045;-83
2022/01/10 12:13:14;;;;;;;49.28;28.65;;;5.20;99.90;;;;;;5028573;28;20041;-83
2022/01/10 12:15:40;;;;;;;47.63;28.55;;;5.30;99.90;;;;;;5029171;28;20065;-82
2022/01/10 12:18:06;;;;;;;49.85;24.23;;;5.40;99.90;;;;;;5028368;28;20053;-82
2022/01/10 12:20:32;;;;;;;48.33;23.42;;;5.50;99.90;;;;;;5011305;28;20052;-83
2022/01/10 12:22:58;;;;;;;46.20;23.15;;;5.40;99.90;;;;;;5028393;28;20042;-83
2022/01/10 12:25:23;;;;;;;45.75;24.73;;;5.60;99.90;;;;;;5011906;28;20086;-84
2022/01/10 12:27:51;;;;;;;43.58;22.25;;;5.50;99.90;;;;;;5030233;28;20089;-82
2022/01/10 12:30:17;;;;;;;41.00;21.20;;;5.60;99.90;;;;;;5015462;28;20147;-83
2022/01/10 12:32:43;;;;;;;36.03;21.73;;;5.60;99.90;;;;;;5031716;28;20049;-83
2022/01/10 12:35:12;;;;;;;42.88;20.83;;;5.60;99.90;;;;;;5033337;28;20579;-83
2022/01/10 12:37:37;;;;;;;36.53;19.35;;;5.60;99.90;;;;;;5031295;28;20135;-84
2022/01/10 12:40:05;;;;;;;39.63;21.40;;;5.60;99.90;;;;;;5033370;28;20124;-83